Time;durP1;ratioP1;P1;durP2;ratioP2;P2;SDS_P1;SDS_P2;PMS_P1;PMS_P2;Temp;Humidity;BMP_temperature;BMP_pressure;BME280_temperature;BME280_humidity;BME280_pressure;Samples;Min_cycle;Max_cycle;Signal;HPM_P1;HPM_P2
2023/01/25 00:00:20;;;;;;;;;;;;;;;0.19;95.14;103686.00;5071372;28;19920;-61
2023/01/25 00:02:45;;;;;;;;;;;;;;;0.16;95.69;103678.09;5070798;28;19970;-62
2023/01/25 00:05:10;;;;;;;;;;;;;;;0.15;95.62;103679.06;5071226;28;19970;-64
2023/01/25 00:07:36;;;;;;;;;;;;;;;0.16;96.64;103675.38;5070715;28;19924;-63
2023/01/25 00:10:01;;;;;;;;;;;;;;;0.13;96.41;103685.50;5070995;28;19920;-62
2023/01/25 00:12:26;;;;;;;;;;;;;;;0.15;97.12;103678.16;5069291;28;20325;-63
2023/01/25 00:14:51;;;;;;;;;;;;;;;0.07;96.40;103683.19;5071061;28;19917;-62
2023/01/25 00:17:16;;;;;;;;;;;;;;;0.17;97.18;103670.84;5067726;28;19920;-63
2023/01/25 00:19:42;;;;;;;;;;;;;;;0.07;96.69;103675.06;5069688;28;19965;-62
2023/01/25 00:22:07;;;;;;;;;;;;;;;0.08;97.08;103677.69;5070456;28;19969;-62
2023/01/25 00:24:32;;;;;;;;;;;;;;;0.54;96.82;103676.69;5070044;28;20526;-62
2023/01/25 00:26:57;;;;;;;;;;;;;;;0.19;96.78;103680.59;5061682;28;19921;-62
2023/01/25 00:29:23;;;;;;;;;;;;;;;0.35;95.37;103668.84;5050450;28;19955;-62
2023/01/25 00:31:48;;;;;;;;;;;;;;;0.15;95.74;103670.06;5057818;28;19970;-64
2023/01/25 00:34:22;;;;;;;;;;;;;;;0.66;93.60;103662.38;5069876;28;20314;-62
2023/01/25 00:36:48;;;;;;;;;;;;;;;0.68;94.03;103665.88;5070251;28;19935;-62
2023/01/25 00:39:13;;;;;;;;;;;;;;;0.19;94.36;103679.72;5069895;28;19917;-62
2023/01/25 00:41:39;;;;;;;;;;;;;;;0.06;95.75;103676.03;5068133;28;19926;-63
2023/01/25 00:44:04;;;;;;;;;;;;;;;-0.01;96.27;103662.00;5069013;28;19923;-64
2023/01/25 00:46:30;;;;;;;;;;;;;;;-0.05;96.74;103664.06;5070106;28;19920;-62
2023/01/25 00:48:55;;;;;;;;;;;;;;;-0.13;96.53;103668.16;5068948;28;20576;-62
2023/01/25 00:51:21;;;;;;;;;;;;;;;-0.12;96.68;103659.09;5067407;28;19966;-61
2023/01/25 00:53:46;;;;;;;;;;;;;;;-0.01;96.94;103667.41;5070046;28;19916;-62
2023/01/25 00:56:11;;;;;;;;;;;;;;;0.05;96.03;103666.16;5068661;28;19924;-63
2023/01/25 00:58:37;;;;;;;;;;;;;;;0.22;96.07;103666.03;5069185;28;20317;-63
2023/01/25 01:01:02;;;;;;;;;;;;;;;0.00;95.82;103658.38;5068373;28;19916;-65
2023/01/25 01:03:27;;;;;;;;;;;;;;;-0.04;96.22;103656.81;5070426;28;20030;-62
2023/01/25 01:06:04;;;;;;;;;;;;;;;0.02;96.74;103659.13;5069553;28;20011;-62
2023/01/25 01:08:29;;;;;;;;;;;;;;;-0.02;96.90;103662.97;5069113;28;19925;-62
2023/01/25 01:10:59;;;;;;;;;;;;;;;0.21;95.41;103658.91;5067791;28;20323;-62
2023/01/25 01:13:25;;;;;;;;;;;;;;;0.02;96.61;103655.56;5056098;28;19943;-64
2023/01/25 01:15:50;;;;;;;;;;;;;;;0.36;94.57;103652.53;5068964;28;19913;-64
2023/01/25 01:18:15;;;;;;;;;;;;;;;0.23;95.42;103655.13;5069832;28;20022;-64
2023/01/25 01:20:40;;;;;;;;;;;;;;;0.57;93.67;103646.75;5067680;28;19931;-63
2023/01/25 01:23:05;;;;;;;;;;;;;;;0.72;91.17;103648.50;5070032;28;19977;-63
2023/01/25 01:25:31;;;;;;;;;;;;;;;0.14;92.85;103649.41;5069749;28;20278;-64
2023/01/25 01:27:56;;;;;;;;;;;;;;;0.00;94.62;103647.56;5068109;28;19935;-63
2023/01/25 01:30:22;;;;;;;;;;;;;;;-0.09;95.20;103653.50;5069428;28;20444;-63
2023/01/25 01:32:47;;;;;;;;;;;;;;;0.14;94.09;103660.22;5066844;28;19927;-62
2023/01/25 01:35:12;;;;;;;;;;;;;;;0.01;95.72;103656.53;5069449;28;19921;-63
2023/01/25 01:37:40;;;;;;;;;;;;;;;-0.01;95.66;103656.59;5069330;28;19917;-62
2023/01/25 01:40:07;;;;;;;;;;;;;;;-0.10;95.95;103649.94;5070199;28;19917;-63
2023/01/25 01:42:32;;;;;;;;;;;;;;;-0.10;96.45;103649.94;5067894;28;19920;-62
2023/01/25 01:44:57;;;;;;;;;;;;;;;-0.10;96.71;103649.94;5066887;28;20822;-61
2023/01/25 01:47:26;;;;;;;;;;;;;;;-0.08;96.80;103650.72;5069087;28;19966;-65
2023/01/25 01:50:14;;;;;;;;;;;;;;;0.11;96.49;103649.63;5069070;28;19916;-62
2023/01/25 01:52:40;;;;;;;;;;;;;;;0.04;96.49;103654.50;5068082;28;19912;-63
2023/01/25 01:55:11;;;;;;;;;;;;;;;-0.08;96.86;103650.72;5069812;28;19920;-62
2023/01/25 01:57:40;;;;;;;;;;;;;;;-0.08;97.06;103656.13;5065915;28;19970;-64
2023/01/25 02:00:15;;;;;;;;;;;;;;;-0.08;97.20;103649.84;5068447;28;19928;-62
2023/01/25 02:02:40;;;;;;;;;;;;;;;-0.07;97.47;103647.03;5067326;28;20317;-62
2023/01/25 02:05:08;;;;;;;;;;;;;;;-0.06;97.67;103648.78;5066719;28;19916;-61
2023/01/25 02:07:36;;;;;;;;;;;;;;;-0.04;97.52;103652.28;5068870;28;19916;-64
2023/01/25 02:10:06;;;;;;;;;;;;;;;-0.02;97.98;103647.63;5068482;28;19916;-63
2023/01/25 02:12:31;;;;;;;;;;;;;;;0.24;96.84;103642.47;5067376;28;20375;-62
2023/01/25 02:14:57;;;;;;;;;;;;;;;0.20;95.79;103646.31;5066718;28;19923;-62
2023/01/25 02:17:33;;;;;;;;;;;;;;;-0.01;96.64;103638.56;5067704;28;19920;-62
2023/01/25 02:20:13;;;;;;;;;;;;;;;-0.05;97.24;103644.25;5064362;28;19977;-62
2023/01/25 02:22:57;;;;;;;;;;;;;;;-0.06;97.51;103645.22;5068355;28;19917;-63
2023/01/25 02:25:22;;;;;;;;;;;;;;;-0.09;97.41;103640.88;5064713;28;19927;-63
2023/01/25 02:27:53;;;;;;;;;;;;;;;-0.10;97.35;103640.94;5061417;28;20282;-66
2023/01/25 02:30:18;;;;;;;;;;;;;;;-0.10;97.76;103625.63;5048656;28;19917;-62
2023/01/25 02:32:44;;;;;;;;;;;;;;;-0.05;97.17;103626.22;5060299;28;19925;-62
2023/01/25 02:35:19;;;;;;;;;;;;;;;-0.12;97.95;103622.13;5066207;28;19960;-63
2023/01/25 02:37:45;;;;;;;;;;;;;;;-0.17;97.73;103624.25;5067442;28;19942;-61
2023/01/25 02:40:10;;;;;;;;;;;;;;;-0.21;97.89;103630.78;5090375;22;20410;-62
2023/01/25 02:42:35;;;;;;;;;;;;;;;-0.23;98.03;103629.16;5046331;28;19920;-62
2023/01/25 02:45:01;;;;;;;;;;;;;;;-0.23;98.37;103624.63;5043963;28;19939;-62
2023/01/25 02:47:26;;;;;;;;;;;;;;;-0.22;98.43;103618.25;5044334;28;19932;-62
2023/01/25 02:49:51;;;;;;;;;;;;;;;-0.18;98.58;103616.25;5046822;28;19917;-64
2023/01/25 02:52:16;;;;;;;;;;;;;;;-0.15;98.56;103618.75;5040251;28;19944;-61
2023/01/25 02:54:42;;;;;;;;;;;;;;;-0.11;98.48;103617.59;5043008;28;20015;-62
2023/01/25 02:57:08;;;;;;;;;;;;;;;-0.14;98.48;103617.81;5044410;28;19917;-62
2023/01/25 02:59:33;;;;;;;;;;;;;;;-0.14;98.22;103610.56;5048368;28;19951;-65
2023/01/25 03:01:58;;;;;;;;;;;;;;;-0.14;98.27;103613.28;5042693;28;19913;-63
2023/01/25 03:04:24;;;;;;;;;;;;;;;-0.14;98.34;103618.69;5047459;28;20391;-62
2023/01/25 03:06:49;;;;;;;;;;;;;;;-0.15;98.53;103616.94;5045736;28;19942;-64
2023/01/25 03:09:14;;;;;;;;;;;;;;;-0.16;98.60;103619.72;5028276;28;19921;-62
2023/01/25 03:11:39;;;;;;;;;;;;;;;-0.17;98.59;103615.28;5026391;28;20002;-65
2023/01/25 03:14:04;;;;;;;;;;;;;;;-0.17;98.77;103608.03;5033045;28;19996;-63
2023/01/25 03:16:30;;;;;;;;;;;;;;;-0.16;98.74;103615.19;5050425;28;20390;-62
2023/01/25 03:18:55;;;;;;;;;;;;;;;-0.15;98.40;103610.66;5051341;28;20011;-61
2023/01/25 03:21:21;;;;;;;;;;;;;;;-0.16;98.41;103603.50;5050249;28;19921;-62
2023/01/25 03:23:47;;;;;;;;;;;;;;;-0.16;98.71;103601.66;5050309;28;19921;-66
2023/01/25 03:26:14;;;;;;;;;;;;;;;-0.14;98.93;103591.66;5050709;28;19924;-63
2023/01/25 03:28:40;;;;;;;;;;;;;;;-0.13;98.65;103584.44;5050213;28;19921;-63
2023/01/25 03:31:05;;;;;;;;;;;;;;;-0.18;98.60;103578.44;5051344;28;19920;-63
2023/01/25 03:33:31;;;;;;;;;;;;;;;-0.23;98.34;103578.72;5051298;28;19978;-63
2023/01/25 03:35:56;;;;;;;;;;;;;;;-0.23;98.69;103581.41;5049830;28;19920;-62
2023/01/25 03:38:22;;;;;;;;;;;;;;;-0.24;98.28;103568.00;5049063;28;19996;-62
2023/01/25 03:40:47;;;;;;;;;;;;;;;-0.21;98.80;103573.22;5049843;28;19921;-62
2023/01/25 03:43:12;;;;;;;;;;;;;;;-0.20;98.49;103574.94;5036087;28;19987;-63
2023/01/25 03:45:38;;;;;;;;;;;;;;;-0.21;98.48;103571.38;5047813;28;19974;-62
2023/01/25 03:48:03;;;;;;;;;;;;;;;-0.30;98.67;103571.97;5050809;28;20366;-62
2023/01/25 03:50:28;;;;;;;;;;;;;;;-0.32;98.64;103572.03;5050590;28;20248;-63
2023/01/25 03:53:00;;;;;;;;;;;;;;;-0.31;98.86;103565.66;5050326;28;20708;-62
2023/01/25 03:55:25;;;;;;;;;;;;;;;-0.26;98.78;103573.47;5048579;28;19917;-61
2023/01/25 03:57:50;;;;;;;;;;;;;;;-0.24;98.99;103568.88;5048810;28;19928;-62
2023/01/25 04:00:16;;;;;;;;;;;;;;;-0.21;98.56;103571.38;5049576;28;19943;-62
2023/01/25 04:02:41;;;;;;;;;;;;;;;-0.24;98.37;103576.97;5050023;28;19917;-62
2023/01/25 04:05:06;;;;;;;;;;;;;;;-0.20;98.49;103580.34;5051335;28;20306;-63
2023/01/25 04:07:33;;;;;;;;;;;;;;;-0.20;98.38;103566.84;5040631;28;20316;-64
2023/01/25 04:09:58;;;;;;;;;;;;;;;-0.21;98.35;103578.59;5043976;28;20551;-64
2023/01/25 04:12:23;;;;;;;;;;;;;;;-0.23;98.49;103564.34;5047805;28;20382;-63
2023/01/25 04:14:48;;;;;;;;;;;;;;;-0.23;98.50;103570.59;5048936;28;19917;-64
2023/01/25 04:17:13;;;;;;;;;;;;;;;-0.23;98.75;103567.91;5049713;28;19940;-62
2023/01/25 04:19:38;;;;;;;;;;;;;;;-0.26;98.81;103565.38;5050448;28;20355;-64
2023/01/25 04:22:04;;;;;;;;;;;;;;;-0.27;98.69;103551.00;5049788;28;20015;-62
2023/01/25 04:24:29;;;;;;;;;;;;;;;-0.27;98.46;103551.00;5048555;28;19943;-65
2023/01/25 04:26:54;;;;;;;;;;;;;;;-0.26;98.40;103550.03;5047573;28;19924;-65
2023/01/25 04:29:19;;;;;;;;;;;;;;;-0.24;98.63;103544.56;5050020;28;19928;-63
2023/01/25 04:31:44;;;;;;;;;;;;;;;-0.22;98.53;103550.72;5048773;28;20356;-62
2023/01/25 04:34:10;;;;;;;;;;;;;;;-0.22;98.77;103553.44;5050733;28;19916;-62
2023/01/25 04:36:35;;;;;;;;;;;;;;;-0.25;98.76;103553.66;5050011;28;19921;-62
2023/01/25 04:39:00;;;;;;;;;;;;;;;-0.25;98.65;103556.34;5048832;28;19980;-62
2023/01/25 04:41:28;;;;;;;;;;;;;;;-0.26;98.79;103549.19;5048367;28;20022;-64
2023/01/25 04:43:53;;;;;;;;;;;;;;;-0.28;99.03;103551.13;5049463;28;20011;-63
2023/01/25 04:46:18;;;;;;;;;;;;;;;-0.32;99.14;103542.31;5050194;28;20414;-62
2023/01/25 04:48:43;;;;;;;;;;;;;;;-0.31;99.12;103540.50;5046355;28;19999;-62
2023/01/25 04:51:08;;;;;;;;;;;;;;;-0.30;99.03;103537.72;5047129;28;20343;-65
2023/01/25 04:53:34;;;;;;;;;;;;;;;-0.30;99.12;103537.72;5048133;28;19927;-62
2023/01/25 04:55:59;;;;;;;;;;;;;;;-0.30;98.97;103540.41;5043742;28;19928;-63
2023/01/25 04:58:24;;;;;;;;;;;;;;;-0.30;98.88;103542.25;5049247;28;20044;-62
2023/01/25 05:00:49;;;;;;;;;;;;;;;-0.29;98.96;103538.59;5049578;28;20263;-61
2023/01/25 05:03:14;;;;;;;;;;;;;;;-0.35;98.39;103537.13;5049857;28;19924;-62
2023/01/25 05:05:43;;;;;;;;;;;;;;;-0.38;98.75;103544.53;5048609;28;19927;-63
2023/01/25 05:08:08;;;;;;;;;;;;;;;-0.44;98.99;103531.41;5047232;28;19928;-65
2023/01/25 05:10:33;;;;;;;;;;;;;;;-0.47;98.95;103527.06;5046266;28;19974;-62
2023/01/25 05:12:59;;;;;;;;;;;;;;;-0.44;98.84;103523.31;5047880;28;19921;-62
2023/01/25 05:15:24;;;;;;;;;;;;;;;-0.43;98.79;103523.22;5049574;28;19917;-64
2023/01/25 05:17:49;;;;;;;;;;;;;;;-0.42;98.61;103522.25;5048492;28;20406;-62
2023/01/25 05:20:14;;;;;;;;;;;;;;;-0.40;98.78;103519.47;5049131;28;19928;-62
2023/01/25 05:22:40;;;;;;;;;;;;;;;-0.35;98.94;103520.06;5044629;28;20359;-63
2023/01/25 05:26:59;;;;;;;;;;;;;;;-0.35;98.05;103515.53;5046592;28;19921;-65
2023/01/25 05:27:50;;;;;;;;;;;;;;;-0.41;98.32;103512.31;5046335;28;20274;-62
2023/01/25 05:30:15;;;;;;;;;;;;;;;-0.40;98.51;103508.69;5047845;28;19931;-62
2023/01/25 05:32:41;;;;;;;;;;;;;;;-0.38;98.44;103515.69;5048436;28;19917;-64
2023/01/25 05:35:06;;;;;;;;;;;;;;;-0.43;98.75;103515.13;5048250;28;19939;-63
2023/01/25 05:37:31;;;;;;;;;;;;;;;-0.41;98.42;103512.31;5048559;28;19920;-62
2023/01/25 05:39:56;;;;;;;;;;;;;;;-0.40;98.78;103505.97;5043853;28;19928;-62
2023/01/25 05:42:21;;;;;;;;;;;;;;;-0.40;98.63;103497.88;5038301;28;19920;-62
2023/01/25 05:44:47;;;;;;;;;;;;;;;-0.39;98.68;103511.28;5046349;28;19929;-64
2023/01/25 05:47:13;;;;;;;;;;;;;;;-0.38;98.77;103509.44;5031908;28;19921;-62
2023/01/25 05:49:38;;;;;;;;;;;;;;;-0.37;98.54;103519.25;5034828;28;20405;-66
2023/01/25 05:52:03;;;;;;;;;;;;;;;-0.35;99.06;103511.97;5047350;28;19921;-65
2023/01/25 05:54:29;;;;;;;;;;;;;;;-0.40;99.01;103504.13;5040730;28;19974;-63
2023/01/25 05:56:54;;;;;;;;;;;;;;;-0.42;99.13;103508.75;5046113;28;20012;-62
2023/01/25 05:59:19;;;;;;;;;;;;;;;-0.45;98.91;103506.25;5048034;28;19923;-62
2023/01/25 06:01:44;;;;;;;;;;;;;;;-0.43;98.95;103508.84;5046299;28;19916;-62
2023/01/25 06:04:13;;;;;;;;;;;;;;;-0.41;99.03;103501.50;5046855;28;19917;-65
2023/01/25 06:06:38;;;;;;;;;;;;;;;-0.39;98.79;103500.47;5047841;28;19999;-66
2023/01/25 06:09:03;;;;;;;;;;;;;;;-0.36;99.01;103504.78;5048146;28;20012;-63
2023/01/25 06:11:28;;;;;;;;;;;;;;;-0.33;98.92;103510.03;5046850;28;19924;-63
2023/01/25 06:13:53;;;;;;;;;;;;;;;-0.31;98.95;103514.34;5047620;28;20371;-62
2023/01/25 06:16:19;;;;;;;;;;;;;;;-0.10;98.31;103512.19;5047754;28;20268;-62
2023/01/25 06:18:44;;;;;;;;;;;;;;;-0.31;98.57;103513.47;5047417;28;19971;-62
2023/01/25 06:21:10;;;;;;;;;;;;;;;-0.33;98.90;103516.28;5045943;28;20279;-62
2023/01/25 06:23:35;;;;;;;;;;;;;;;-0.34;98.68;103505.59;5048348;28;19932;-63
2023/01/25 06:26:02;;;;;;;;;;;;;;;-0.32;98.81;103511.75;5046283;28;19965;-65
2023/01/25 06:28:34;;;;;;;;;;;;;;;-0.29;99.31;103508.88;5048022;28;19917;-62
2023/01/25 06:31:07;;;;;;;;;;;;;;;-0.29;99.17;103500.78;5047418;28;19917;-64
2023/01/25 06:33:32;;;;;;;;;;;;;;;-0.28;99.12;103507.91;5047748;28;20263;-62
2023/01/25 06:36:05;;;;;;;;;;;;;;;-0.30;99.35;103508.00;5047344;28;19932;-63
2023/01/25 06:38:30;;;;;;;;;;;;;;;-0.31;99.05;103500.84;5046967;28;19917;-63
2023/01/25 06:40:59;;;;;;;;;;;;;;;-0.31;99.09;103506.25;5046131;28;19970;-63
2023/01/25 06:43:24;;;;;;;;;;;;;;;-0.30;99.24;103507.16;5047624;28;19940;-62
2023/01/25 06:45:49;;;;;;;;;;;;;;;-0.31;99.22;103498.16;5046974;28;19964;-63
2023/01/25 06:48:15;;;;;;;;;;;;;;;-0.30;99.76;103505.31;5046682;28;19924;-63
2023/01/25 06:50:40;;;;;;;;;;;;;;;-0.31;99.47;103502.69;5047000;28;19916;-63
2023/01/25 06:53:05;;;;;;;;;;;;;;;-0.33;99.26;103502.78;5047717;28;20007;-63
2023/01/25 06:55:30;;;;;;;;;;;;;;;-0.33;99.17;103504.63;5047293;28;20004;-63
2023/01/25 06:57:58;;;;;;;;;;;;;;;-0.32;99.52;103507.22;5045911;28;19917;-62
2023/01/25 07:00:23;;;;;;;;;;;;;;;-0.35;99.54;103501.16;5047209;28;20015;-64
2023/01/25 07:02:49;;;;;;;;;;;;;;;-0.34;99.73;103497.50;5047046;28;20370;-63
2023/01/25 07:05:14;;;;;;;;;;;;;;;-0.34;99.42;103498.34;5047186;28;19970;-65
2023/01/25 07:07:39;;;;;;;;;;;;;;;-0.35;99.54;103499.31;5046526;28;19920;-64
2023/01/25 07:10:04;;;;;;;;;;;;;;;-0.33;99.85;103501.91;5042093;28;19944;-62
2023/01/25 07:12:30;;;;;;;;;;;;;;;-0.33;99.80;103494.69;5040750;28;20339;-64
2023/01/25 07:14:55;;;;;;;;;;;;;;;-0.31;99.96;103499.97;5034689;28;19924;-63
2023/01/25 07:17:20;;;;;;;;;;;;;;;-0.32;99.95;103503.66;5027226;28;19945;-64
2023/01/25 07:19:45;;;;;;;;;;;;;;;-0.31;99.84;103510.78;5033109;28;19921;-63
2023/01/25 07:22:11;;;;;;;;;;;;;;;-0.31;99.52;103503.53;5041318;28;19921;-63
2023/01/25 07:24:36;;;;;;;;;;;;;;;-0.32;99.87;103504.53;5035048;28;20343;-63
2023/01/25 07:27:01;;;;;;;;;;;;;;;-0.32;99.87;103501.81;5037569;28;19928;-64
2023/01/25 07:29:26;;;;;;;;;;;;;;;-0.33;99.66;103494.69;5029887;28;19925;-63
2023/01/25 07:31:51;;;;;;;;;;;;;;;-0.31;99.82;103502.69;5040899;28;21357;-63
2023/01/25 07:34:17;;;;;;;;;;;;;;;-0.31;99.52;103489.19;5034140;28;19927;-62
2023/01/25 07:36:42;;;;;;;;;;;;;;;-0.29;99.98;103490.84;5043359;28;19921;-63
2023/01/25 07:39:11;;;;;;;;;;;;;;;-0.28;99.85;103486.31;5035101;28;19928;-66
2023/01/25 07:41:36;;;;;;;;;;;;;;;-0.30;100.00;103486.41;5036936;28;20271;-63
2023/01/25 07:44:02;;;;;;;;;;;;;;;-0.32;99.57;103477.50;5033306;28;19943;-63
2023/01/25 07:46:27;;;;;;;;;;;;;;;-0.34;99.65;103482.16;5038707;28;19925;-64
2023/01/25 07:48:53;;;;;;;;;;;;;;;-0.34;99.35;103484.00;5037183;28;19921;-62
2023/01/25 07:51:22;;;;;;;;;;;;;;;-0.34;99.77;103475.88;5036686;28;19936;-64
2023/01/25 07:53:49;;;;;;;;;;;;;;;-0.30;99.73;103485.53;5037232;28;19921;-65
2023/01/25 07:56:14;;;;;;;;;;;;;;;-0.29;99.62;103479.19;5036201;28;19924;-65
2023/01/25 07:58:39;;;;;;;;;;;;;;;-0.34;99.84;103487.56;5038799;28;19928;-63
2023/01/25 08:01:08;;;;;;;;;;;;;;;-0.32;100.00;103482.91;5044470;28;20338;-62
2023/01/25 08:03:34;;;;;;;;;;;;;;;-0.33;99.45;103488.41;5049083;28;19928;-62
2023/01/25 08:05:59;;;;;;;;;;;;;;;-0.34;99.56;103486.69;5039515;28;19929;-63
2023/01/25 08:08:25;;;;;;;;;;;;;;;-0.33;99.65;103477.63;5041538;28;19921;-63
2023/01/25 08:10:50;;;;;;;;;;;;;;;-0.30;99.68;103477.44;5045233;28;19928;-65
2023/01/25 08:13:15;;;;;;;;;;;;;;;-0.32;99.87;103473.94;5043814;28;19929;-63
2023/01/25 08:15:40;;;;;;;;;;;;;;;-0.31;99.79;103478.38;5044219;28;21409;-62
2023/01/25 08:18:05;;;;;;;;;;;;;;;-0.31;99.57;103479.25;5037538;28;19931;-63
2023/01/25 08:20:31;;;;;;;;;;;;;;;-0.30;99.76;103474.75;5038105;28;19925;-63
2023/01/25 08:22:56;;;;;;;;;;;;;;;-0.31;99.69;103470.28;5043979;28;20467;-64
2023/01/25 08:25:21;;;;;;;;;;;;;;;-0.33;99.56;103467.69;5044608;28;20451;-66
2023/01/25 08:27:46;;;;;;;;;;;;;;;-0.34;99.34;103467.78;5041136;28;19920;-62
2023/01/25 08:30:12;;;;;;;;;;;;;;;-0.34;99.73;103470.50;5044566;28;20469;-62
2023/01/25 08:32:37;;;;;;;;;;;;;;;-0.33;99.66;103458.72;5049791;28;19978;-63
2023/01/25 08:35:03;;;;;;;;;;;;;;;-0.32;99.55;103460.44;5045549;28;20267;-65
2023/01/25 08:37:28;;;;;;;;;;;;;;;-0.33;99.52;103461.41;5044153;28;19925;-63
2023/01/25 08:39:56;;;;;;;;;;;;;;;-0.32;99.36;103463.16;5041232;28;19921;-63
2023/01/25 08:42:21;;;;;;;;;;;;;;;-0.35;99.26;103466.06;5043335;28;19967;-63
2023/01/25 08:44:46;;;;;;;;;;;;;;;-0.04;99.06;103459.59;5044721;28;19972;-64
2023/01/25 08:47:11;;;;;;;;;;;;;;;-0.14;98.66;103464.72;5039784;28;19927;-64
2023/01/25 08:49:37;;;;;;;;;;;;;;;-0.40;98.90;103466.34;5048890;28;20381;-63
2023/01/25 08:52:02;;;;;;;;;;;;;;;-0.40;99.19;103468.19;5045524;28;19989;-64
2023/01/25 08:54:27;;;;;;;;;;;;;;;-0.38;99.38;103461.69;5039177;28;19921;-62
2023/01/25 08:56:53;;;;;;;;;;;;;;;-0.38;99.17;103464.41;5044752;28;19928;-63
2023/01/25 08:59:18;;;;;;;;;;;;;;;-0.36;98.98;103461.59;5048758;28;19917;-63
2023/01/25 09:01:43;;;;;;;;;;;;;;;-0.35;99.29;103452.56;5048542;28;20306;-64
2023/01/25 09:04:08;;;;;;;;;;;;;;;-0.31;99.53;103446.84;5043855;28;19924;-66
2023/01/25 09:06:33;;;;;;;;;;;;;;;-0.30;99.24;103440.50;5043819;28;19925;-65
2023/01/25 09:08:59;;;;;;;;;;;;;;;-0.27;99.39;103442.13;5040655;28;19917;-63
2023/01/25 09:11:24;;;;;;;;;;;;;;;-0.26;99.19;103436.63;5044561;28;20004;-63
2023/01/25 09:13:49;;;;;;;;;;;;;;;-0.27;99.20;103440.28;5038927;28;20046;-63
2023/01/25 09:16:21;;;;;;;;;;;;;;;-0.23;99.33;103440.97;5047396;28;20007;-63
2023/01/25 09:18:46;;;;;;;;;;;;;;;-0.22;99.53;103442.72;5046490;28;20367;-63
2023/01/25 09:21:13;;;;;;;;;;;;;;;-0.18;99.21;103443.38;5046117;28;19921;-62
2023/01/25 09:23:39;;;;;;;;;;;;;;;-0.17;99.26;103434.31;5045904;28;19917;-63
2023/01/25 09:26:04;;;;;;;;;;;;;;;-0.16;99.20;103436.91;5032491;28;20043;-63
2023/01/25 09:28:30;;;;;;;;;;;;;;;-0.15;99.05;103438.69;5040713;28;20066;-63
2023/01/25 09:30:56;;;;;;;;;;;;;;;-0.15;99.15;103443.19;5043547;28;19928;-63
2023/01/25 09:33:25;;;;;;;;;;;;;;;-0.16;99.27;103445.00;5048648;28;19943;-63
2023/01/25 09:35:51;;;;;;;;;;;;;;;-0.15;99.40;103443.19;5034368;28;19921;-65
2023/01/25 09:38:16;;;;;;;;;;;;;;;-0.14;99.44;103447.66;5040529;28;19916;-63
2023/01/25 09:40:44;;;;;;;;;;;;;;;-0.13;99.80;103441.28;5031615;28;19921;-63
2023/01/25 09:43:21;;;;;;;;;;;;;;;-0.14;99.38;103432.31;5035091;28;20342;-63
2023/01/25 09:45:46;;;;;;;;;;;;;;;-0.14;99.35;103440.41;5039104;28;19917;-63
2023/01/25 09:48:27;;;;;;;;;;;;;;;-0.15;99.61;103433.28;5037838;28;19927;-62
2023/01/25 09:50:58;;;;;;;;;;;;;;;-0.16;99.28;103434.22;5041025;28;19956;-63
2023/01/25 09:53:31;;;;;;;;;;;;;;;-0.16;99.63;103427.94;5045185;28;20019;-63
2023/01/25 09:55:58;;;;;;;;;;;;;;;-0.15;99.31;103432.38;5042175;28;20000;-64
2023/01/25 09:58:26;;;;;;;;;;;;;;;-0.16;98.88;103426.09;5038599;28;19921;-63
2023/01/25 10:01:04;;;;;;;;;;;;;;;-0.11;99.41;103432.09;5038258;28;19928;-64
2023/01/25 10:03:30;;;;;;;;;;;;;;;-0.11;98.91;103439.31;5040917;28;19956;-65
2023/01/25 10:05:57;;;;;;;;;;;;;;;-0.10;99.23;103441.06;5037332;28;19921;-63
2023/01/25 10:08:34;;;;;;;;;;;;;;;-0.11;98.89;103428.53;5040825;28;19921;-63
2023/01/25 10:11:18;;;;;;;;;;;;;;;-0.09;99.06;103427.47;5044726;28;19921;-63
2023/01/25 10:13:43;;;;;;;;;;;;;;;-0.06;99.08;103418.28;5035411;28;19967;-63
2023/01/25 10:16:18;;;;;;;;;;;;;;;-0.06;98.73;103416.44;5043445;28;20114;-64
2023/01/25 10:18:55;;;;;;;;;;;;;;;-0.04;98.86;103421.78;5047059;28;19917;-63
2023/01/25 10:21:29;;;;;;;;;;;;;;;-0.02;98.65;103423.41;5046974;28;20367;-63
2023/01/25 10:24:13;;;;;;;;;;;;;;;-0.01;98.73;103417.03;5044685;28;20032;-63
2023/01/25 10:26:41;;;;;;;;;;;;;;;0.02;98.69;103423.22;5043746;28;19921;-63
2023/01/25 10:29:11;;;;;;;;;;;;;;;-0.01;98.65;103408.91;5044408;28;19935;-64
2023/01/25 10:31:52;;;;;;;;;;;;;;;-0.01;98.56;103408.91;5045707;28;19932;-65
2023/01/25 10:34:22;;;;;;;;;;;;;;;0.01;98.73;103399.88;5046462;28;19925;-62
2023/01/25 10:36:49;;;;;;;;;;;;;;;0.03;98.83;103406.03;5044730;28;20306;-64
2023/01/25 10:39:16;;;;;;;;;;;;;;;0.05;98.79;103399.59;5043707;28;19920;-63
2023/01/25 10:41:45;;;;;;;;;;;;;;;0.08;98.98;103390.41;5043865;28;19921;-62
2023/01/25 10:44:23;;;;;;;;;;;;;;;0.09;98.67;103379.47;5046813;28;20375;-63
2023/01/25 10:46:51;;;;;;;;;;;;;;;0.09;98.65;103365.09;5035285;28;20426;-63
2023/01/25 10:49:28;;;;;;;;;;;;;;;0.05;98.51;103364.47;5032967;28;20031;-64
2023/01/25 10:51:54;;;;;;;;;;;;;;;0.08;98.53;103363.38;5026367;28;19971;-64
2023/01/25 10:54:20;;;;;;;;;;;;;;;0.06;98.67;103359.91;5026695;28;19945;-63
2023/01/25 10:56:46;;;;;;;;;;;;;;;0.05;98.47;103353.66;5035947;28;19917;-65
2023/01/25 10:59:17;;;;;;;;;;;;;;;0.06;97.46;103346.41;5043437;28;20268;-63
2023/01/25 11:01:43;;;;;;;;;;;;;;;0.05;98.04;103337.44;5046165;28;19917;-63
2023/01/25 11:04:22;;;;;;;;;;;;;;;0.04;98.14;103324.00;5045325;28;19963;-65
2023/01/25 11:06:50;;;;;;;;;;;;;;;0.02;98.38;103326.81;5034971;28;19964;-61
2023/01/25 11:09:21;;;;;;;;;;;;;;;0.03;98.66;103324.97;5045728;28;20364;-61
2023/01/25 11:11:56;;;;;;;;;;;;;;;0.01;98.36;103318.81;5043997;28;19931;-61
2023/01/25 11:14:22;;;;;;;;;;;;;;;-0.01;98.02;103317.06;5028822;28;19928;-62
2023/01/25 11:16:48;;;;;;;;;;;;;;;0.04;97.48;103311.38;5041923;28;20244;-61
2023/01/25 11:19:24;;;;;;;;;;;;;;;0.10;97.26;103301.97;5043210;28;19968;-62
2023/01/25 11:21:50;;;;;;;;;;;;;;;-0.05;97.38;103302.06;5040505;28;19976;-61
2023/01/25 11:24:16;;;;;;;;;;;;;;;-0.04;97.63;103300.22;5039725;28;20461;-61
2023/01/25 11:26:42;;;;;;;;;;;;;;;-0.01;98.05;103286.50;5029344;28;20399;-62
2023/01/25 11:29:12;;;;;;;;;;;;;;;0.02;97.96;103278.19;5039419;28;19913;-61
2023/01/25 11:31:40;;;;;;;;;;;;;;;0.38;96.19;103271.28;5043154;28;19956;-62
2023/01/25 11:34:10;;;;;;;;;;;;;;;0.04;96.30;103264.56;5046783;28;20359;-61
2023/01/25 11:36:38;;;;;;;;;;;;;;;-0.04;96.72;103267.81;5051462;28;19923;-62
2023/01/25 11:39:03;;;;;;;;;;;;;;;-0.04;97.14;103265.97;5046882;28;19928;-62
2023/01/25 11:41:39;;;;;;;;;;;;;;;-0.03;97.32;103256.03;5050034;28;19921;-62
2023/01/25 11:44:22;;;;;;;;;;;;;;;0.01;97.02;103243.19;5042688;28;20299;-62
2023/01/25 11:46:50;;;;;;;;;;;;;;;0.03;97.39;103244.78;5039917;28;20275;-64
2023/01/25 11:49:34;;;;;;;;;;;;;;;0.06;97.21;103241.03;5042025;28;19928;-61
2023/01/25 11:52:23;;;;;;;;;;;;;;;0.12;97.12;103240.63;5036561;28;19971;-64
2023/01/25 11:54:51;;;;;;;;;;;;;;;0.09;97.34;103233.56;5041580;28;19928;-62
2023/01/25 11:57:35;;;;;;;;;;;;;;;0.08;97.36;103228.28;5048927;28;19925;-62
2023/01/25 12:00:00;;;;;;;;;;;;;;;0.04;97.55;103215.94;5050254;28;19920;-62
2023/01/25 12:02:35;;;;;;;;;;;;;;;0.05;97.36;103210.47;5050931;28;19927;-64
2023/01/25 12:05:15;;;;;;;;;;;;;;;0.07;97.35;103202.25;5040600;28;20459;-63
2023/01/25 12:07:40;;;;;;;;;;;;;;;0.07;97.37;103197.69;5034749;28;19935;-63
2023/01/25 12:10:18;;;;;;;;;;;;;;;0.08;96.96;103195.84;5037367;28;19951;-61
2023/01/25 12:13:00;;;;;;;;;;;;;;;-0.01;96.77;103184.69;5036291;28;20000;-63
2023/01/25 12:15:38;;;;;;;;;;;;;;;0.07;96.70;103173.38;5037228;28;20298;-62
2023/01/25 12:18:15;;;;;;;;;;;;;;;-0.07;96.64;103165.34;5031209;28;19917;-63
2023/01/25 12:20:52;;;;;;;;;;;;;;;0.02;96.61;103153.91;5035521;28;19920;-63
2023/01/25 12:23:42;;;;;;;;;;;;;;;-0.04;96.55;103157.91;5050075;28;19928;-63
2023/01/25 12:26:08;;;;;;;;;;;;;;;-0.02;95.72;103150.56;5047631;28;20263;-62
2023/01/25 12:28:46;;;;;;;;;;;;;;;-0.15;96.29;103152.38;5045965;28;19928;-64
2023/01/25 12:31:15;;;;;;;;;;;;;;;-0.14;96.73;103146.00;5049980;28;20039;-63
2023/01/25 12:33:44;;;;;;;;;;;;;;;-0.14;96.65;103134.34;5050088;28;19916;-63
2023/01/25 12:36:16;;;;;;;;;;;;;;;-0.13;96.73;103118.00;5046449;28;20008;-62
2023/01/25 12:38:47;;;;;;;;;;;;;;;-0.15;96.68;103110.97;5040378;28;19928;-64